createdAt,value
2019-02-26T12:14:42.704Z,12.00
2019-02-26T12:17:11.325Z,11.60
2019-02-26T12:19:41.323Z,11.45
2019-02-26T12:22:11.139Z,10.05
2019-02-26T12:24:41.037Z,10.75
2019-02-26T12:27:16.205Z,10.90
2019-02-26T12:29:45.297Z,9.75
2019-02-26T12:32:14.161Z,10.40
2019-02-26T12:34:45.440Z,9.23
2019-02-26T12:37:16.092Z,9.40
2019-02-26T12:39:47.450Z,9.45
2019-02-26T12:42:18.725Z,9.88
2019-02-26T12:44:49.309Z,9.70
2019-02-26T12:47:21.774Z,10.03
2019-02-26T12:49:50.638Z,9.28
2019-02-26T12:52:21.926Z,8.75
2019-02-26T12:54:54.753Z,9.43
2019-02-26T12:57:26.949Z,9.15
2019-02-26T12:59:55.446Z,9.48
2019-02-26T13:02:25.887Z,9.05
2019-02-26T13:04:55.903Z,9.25
2019-02-26T13:07:25.871Z,8.73
2019-02-26T13:10:00.504Z,8.78
2019-02-26T13:12:29.634Z,8.25
2019-02-26T13:15:03.126Z,8.05
2019-02-26T13:17:32.275Z,7.70
2019-02-26T13:20:05.999Z,8.03
2019-02-26T13:22:33.963Z,8.08
2019-02-26T13:25:08.183Z,8.28
2019-02-26T13:27:38.782Z,8.00
2019-02-26T13:30:20.118Z,7.70
2019-02-26T13:32:56.299Z,8.68
2019-02-26T13:35:22.597Z,7.12
2019-02-26T13:37:55.953Z,7.50
2019-02-26T13:40:25.887Z,7.95
2019-02-26T13:45:27.925Z,7.17
2019-02-26T13:48:01.205Z,6.92
2019-02-26T13:50:38.965Z,7.33
2019-02-26T13:53:08.162Z,7.72
2019-02-26T13:55:38.048Z,7.20
2019-02-26T13:58:11.810Z,7.37
2019-02-26T14:00:39.575Z,7.00
2019-02-26T14:03:09.810Z,7.70
2019-02-26T14:05:39.717Z,6.95
2019-02-26T14:08:09.709Z,6.70
2019-02-26T14:10:39.558Z,6.95
2019-02-26T14:13:09.658Z,6.60
2019-02-26T14:15:39.748Z,7.30
2019-02-26T14:18:09.636Z,6.95
2019-02-26T14:20:40.515Z,7.28
2019-02-26T14:23:10.637Z,7.30
2019-02-26T14:25:40.525Z,7.35
2019-02-26T14:28:10.412Z,6.70
2019-02-26T14:30:40.235Z,6.97
2019-02-26T14:33:10.139Z,6.80
2019-02-26T14:35:41.005Z,7.03
2019-02-26T14:38:11.276Z,7.28
2019-02-26T14:40:41.332Z,6.47
2019-02-26T14:43:11.214Z,7.28
2019-02-26T14:45:41.170Z,6.62
2019-02-26T14:48:11.548Z,6.55
2019-02-26T14:50:41.431Z,6.55
2019-02-26T14:53:11.320Z,6.60
2019-02-26T14:55:41.607Z,6.97
2019-02-26T14:58:11.494Z,6.72
2019-02-26T15:00:41.489Z,6.20
2019-02-26T15:03:11.750Z,6.67
2019-02-26T15:05:41.567Z,6.85
2019-02-26T15:08:11.476Z,6.37
2019-02-26T15:10:41.911Z,6.33
2019-02-26T15:13:12.124Z,6.80
2019-02-26T15:15:42.120Z,6.37
2019-02-26T15:18:12.167Z,6.40
2019-02-26T15:20:41.989Z,6.45
2019-02-26T15:23:12.190Z,6.42
2019-02-26T15:25:42.068Z,6.72
2019-02-26T15:28:11.897Z,6.12
2019-02-26T15:30:41.797Z,6.05
2019-02-26T15:33:12.367Z,6.30
2019-02-26T15:35:42.329Z,6.42
2019-02-26T15:38:12.129Z,6.05
2019-02-26T15:40:42.007Z,6.33
2019-02-26T15:43:11.846Z,6.17
2019-02-26T15:45:41.748Z,6.08
2019-02-26T15:48:11.705Z,6.12
2019-02-26T15:50:41.532Z,6.90
2019-02-26T15:53:11.687Z,7.00
2019-02-26T15:55:41.848Z,6.78
2019-02-26T15:58:11.730Z,6.33
2019-02-26T16:00:41.777Z,6.42
2019-02-26T16:03:12.054Z,6.28
2019-02-26T16:05:42.181Z,6.78
2019-02-26T16:08:12.016Z,7.17
2019-02-26T16:10:41.835Z,6.97
2019-02-26T16:13:12.130Z,7.05
2019-02-26T16:15:42.322Z,7.03
2019-02-26T16:18:13.806Z,7.15
2019-02-26T16:20:43.705Z,7.37
2019-02-26T16:23:13.676Z,7.67
2019-02-26T16:25:43.502Z,7.25
2019-02-26T16:28:13.380Z,7.47
2019-02-26T16:30:43.198Z,7.22
2019-02-26T16:33:13.759Z,7.25
2019-02-26T16:35:44.412Z,6.97
2019-02-26T16:38:14.823Z,7.10
2019-02-26T16:40:44.781Z,7.25
2019-02-26T16:43:14.808Z,7.25
2019-02-26T16:45:46.243Z,7.72
2019-02-26T16:48:16.071Z,6.83
2019-02-26T16:50:46.177Z,7.53
2019-02-26T16:53:16.366Z,6.58
2019-02-26T16:55:48.763Z,7.10
2019-02-26T16:58:18.482Z,6.30
2019-02-26T17:00:48.881Z,6.67
2019-02-26T17:03:19.416Z,6.60
2019-02-26T17:05:49.310Z,6.53
2019-02-26T17:08:19.188Z,6.50
2019-02-26T17:10:50.134Z,6.72
2019-02-26T17:13:19.962Z,6.75
2019-02-26T17:15:49.844Z,6.97
2019-02-26T17:18:20.163Z,6.95
2019-02-26T17:20:51.515Z,6.45
2019-02-26T17:23:21.414Z,6.67
2019-02-26T17:25:51.284Z,7.17
2019-02-26T17:28:22.535Z,6.37
2019-02-26T17:30:52.477Z,7.08
2019-02-26T17:33:22.381Z,6.72
2019-02-26T17:35:53.012Z,6.72
2019-02-26T17:38:22.843Z,6.05
2019-02-26T17:40:52.722Z,7.22
2019-02-26T17:43:22.901Z,6.97
2019-02-26T17:45:54.433Z,7.17
2019-02-26T17:48:24.765Z,6.90
2019-02-26T17:50:55.189Z,6.90
2019-02-26T17:53:27.679Z,7.05
2019-02-26T17:55:58.055Z,6.65
2019-02-26T17:58:28.206Z,8.35
2019-02-26T18:00:59.347Z,7.00
2019-02-26T18:03:29.296Z,6.72
2019-02-26T18:05:59.748Z,7.25
2019-02-26T18:08:29.872Z,7.40
2019-02-26T18:10:59.799Z,7.75
2019-02-26T18:13:29.682Z,7.83
2019-02-26T18:16:08.755Z,8.13
2019-02-26T18:18:34.244Z,8.45
2019-02-26T18:21:05.819Z,8.65
2019-02-26T18:23:37.519Z,9.03
2019-02-26T18:26:05.914Z,8.63
2019-02-26T18:28:36.806Z,8.95
2019-02-26T18:31:07.229Z,9.58
2019-02-26T18:33:37.511Z,9.15
2019-02-26T18:36:07.707Z,9.68
2019-02-26T18:38:38.016Z,10.25
2019-02-26T18:41:08.981Z,9.98
2019-02-26T18:43:39.056Z,10.23
2019-02-26T18:46:09.396Z,10.53
2019-02-26T18:48:39.304Z,10.40
2019-02-26T18:51:09.201Z,9.83
2019-02-26T18:53:39.553Z,10.40
2019-02-26T18:56:09.877Z,9.85
2019-02-26T18:58:39.831Z,10.13
2019-02-26T19:01:09.811Z,10.00
2019-02-26T19:03:41.616Z,9.80
2019-02-26T19:06:11.590Z,9.43
2019-02-26T19:08:41.526Z,9.95
2019-02-26T19:11:16.517Z,9.60
2019-02-26T19:13:42.990Z,9.58
2019-02-26T19:16:13.283Z,9.78
2019-02-26T19:18:43.166Z,9.98
2019-02-26T19:21:14.064Z,9.88
2019-02-26T19:23:43.964Z,10.75
2019-02-26T19:26:14.407Z,9.38
2019-02-26T19:28:44.315Z,9.53
2019-02-26T19:31:14.291Z,9.15
2019-02-26T19:33:44.250Z,9.35
2019-02-26T19:36:14.071Z,9.73
2019-02-26T19:38:44.360Z,9.68
2019-02-26T19:41:15.823Z,10.05
2019-02-26T19:43:46.034Z,9.50
2019-02-26T19:46:17.740Z,9.33
2019-02-26T19:48:47.718Z,9.60
2019-02-26T19:51:21.931Z,9.35
2019-02-26T19:53:49.134Z,9.45
2019-02-26T19:56:23.193Z,9.10
2019-02-26T19:58:50.983Z,9.40
2019-02-26T20:01:20.804Z,9.50
2019-02-26T20:03:50.733Z,9.15
2019-02-26T20:06:23.258Z,9.05
2019-02-26T20:08:52.199Z,8.88
2019-02-26T20:11:22.848Z,9.03
2019-02-26T20:13:53.275Z,8.55
2019-02-26T20:16:23.117Z,9.65
2019-02-26T20:18:53.014Z,8.73
2019-02-26T20:21:22.965Z,8.93
2019-02-26T20:23:53.524Z,9.25
2019-02-26T20:26:23.498Z,8.58
2019-02-26T20:28:53.379Z,8.70
2019-02-26T20:31:23.366Z,8.70
2019-02-26T20:33:53.658Z,8.80
2019-02-26T20:36:23.961Z,8.63
2019-02-26T20:38:54.206Z,8.38
2019-02-26T20:41:24.164Z,8.93
2019-02-26T20:43:54.045Z,8.60
2019-02-26T20:46:25.217Z,8.68
2019-02-26T20:48:55.705Z,8.60
2019-02-26T20:51:27.130Z,8.80
2019-02-26T20:53:57.177Z,9.00
2019-02-26T20:56:28.541Z,9.58
2019-02-26T20:58:58.972Z,8.40
2019-02-26T21:01:29.683Z,8.48
2019-02-26T21:04:00.814Z,8.48
2019-02-26T21:06:30.696Z,8.73
2019-02-26T21:09:04.790Z,8.63
2019-02-26T21:11:34.101Z,9.20
2019-02-26T21:14:07.623Z,8.90
2019-02-26T21:16:36.066Z,9.30
2019-02-26T21:19:06.148Z,9.03
2019-02-26T21:21:36.039Z,8.35
2019-02-26T21:24:06.367Z,8.53
2019-02-26T21:26:36.330Z,8.53
2019-02-26T21:29:06.432Z,8.55
2019-02-26T21:31:36.526Z,9.08
2019-02-26T21:34:06.686Z,8.93
2019-02-26T21:36:36.499Z,9.10
2019-02-26T21:39:10.883Z,9.68
2019-02-26T21:41:39.160Z,8.58
2019-02-26T21:44:09.504Z,8.90
2019-02-26T21:46:39.429Z,8.80
2019-02-26T21:49:09.939Z,8.80
2019-02-26T21:51:40.578Z,8.75
